Time;durP1;ratioP1;P1;durP2;ratioP2;P2;SDS_P1;SDS_P2;PMS_P1;PMS_P2;Temp;Humidity;BMP_temperature;BMP_pressure;BME280_temperature;BME280_humidity;BME280_pressure;Samples;Min_cycle;Max_cycle;Signal;HPM_P1;HPM_P2
2021/07/17 00:00:00;;;;;;;13.35;11.45;;;20.80;99.90;;;;;;5094316;28;20028;-91
2021/07/17 00:02:26;;;;;;;17.42;11.52;;;20.80;99.90;;;;;;5058921;28;20032;-91
2021/07/17 00:04:52;;;;;;;13.00;11.35;;;20.70;99.90;;;;;;5067559;28;20016;-91
2021/07/17 00:07:18;;;;;;;12.88;11.10;;;20.70;99.90;;;;;;5073373;28;20032;-90
2021/07/17 00:09:43;;;;;;;16.05;11.57;;;20.70;99.90;;;;;;5089704;28;20017;-92
2021/07/17 00:12:09;;;;;;;12.55;10.90;;;20.70;99.90;;;;;;5090127;28;20049;-91
2021/07/17 00:14:35;;;;;;;14.85;12.50;;;20.70;99.90;;;;;;5068519;28;20016;-91
2021/07/17 00:17:01;;;;;;;14.55;11.35;;;20.70;99.90;;;;;;5061672;28;20123;-92
2021/07/17 00:19:27;;;;;;;15.15;12.13;;;20.70;99.90;;;;;;5057412;28;20556;-91
2021/07/17 00:21:53;;;;;;;13.90;12.20;;;20.60;99.90;;;;;;5076731;28;20025;-92
2021/07/17 00:24:19;;;;;;;14.52;13.02;;;20.60;99.90;;;;;;5093186;28;20016;-89
2021/07/17 00:26:45;;;;;;;17.85;12.50;;;20.60;99.90;;;;;;5075730;28;20032;-90
2021/07/17 00:29:11;;;;;;;14.68;11.40;;;20.60;99.90;;;;;;5068505;28;20028;-91
2021/07/17 00:31:36;;;;;;;15.15;11.70;;;20.50;99.90;;;;;;5064725;28;20054;-90
2021/07/17 00:34:02;;;;;;;17.58;12.93;;;20.60;99.90;;;;;;5063504;28;20024;-89
2021/07/17 00:36:28;;;;;;;14.20;12.50;;;20.60;99.90;;;;;;5075375;28;20032;-90
2021/07/17 00:38:54;;;;;;;14.00;12.48;;;20.50;99.90;;;;;;5070326;28;20054;-92
2021/07/17 00:41:19;;;;;;;13.10;11.77;;;20.50;99.90;;;;;;5090735;28;20030;-90
2021/07/17 00:43:45;;;;;;;17.98;11.23;;;20.50;99.90;;;;;;5071525;28;20116;-89
2021/07/17 00:46:11;;;;;;;12.90;11.60;;;20.50;99.90;;;;;;5079007;28;20028;-90
2021/07/17 00:48:38;;;;;;;15.80;12.80;;;20.50;99.90;;;;;;5089648;28;20024;-90
2021/07/17 00:51:04;;;;;;;17.63;11.73;;;20.50;99.90;;;;;;5089350;28;20463;-92
2021/07/17 00:53:31;;;;;;;14.32;12.25;;;20.50;99.90;;;;;;5091500;28;20032;-91
2021/07/17 00:55:57;;;;;;;13.18;11.88;;;20.50;99.90;;;;;;5085448;28;20542;-91
2021/07/17 00:58:27;;;;;;;15.73;12.27;;;20.40;99.90;;;;;;5075150;28;20055;-91
2021/07/17 01:00:55;;;;;;;18.10;12.52;;;20.40;99.90;;;;;;5074186;28;20023;-92
2021/07/17 01:03:21;;;;;;;17.02;11.93;;;20.40;99.90;;;;;;5092469;28;20047;-90
2021/07/17 01:05:47;;;;;;;13.93;12.48;;;20.40;99.90;;;;;;5074500;28;20052;-90
2021/07/17 01:08:13;;;;;;;14.27;11.98;;;20.30;99.90;;;;;;5092172;28;20047;-90
2021/07/17 01:10:39;;;;;;;16.42;11.13;;;20.30;99.90;;;;;;5092777;28;20028;-91
2021/07/17 01:13:05;;;;;;;12.40;9.23;;;20.30;99.90;;;;;;5070833;28;20024;-91
2021/07/17 01:15:31;;;;;;;15.25;10.13;;;20.30;99.90;;;;;;5073926;28;20031;-91
2021/07/17 01:17:57;;;;;;;13.70;10.77;;;20.30;99.90;;;;;;5074046;28;20020;-91
2021/07/17 01:20:24;;;;;;;13.50;11.55;;;20.20;99.90;;;;;;5070691;28;20372;-90
2021/07/17 01:22:50;;;;;;;13.45;11.30;;;20.20;99.90;;;;;;5072380;28;20020;-91
2021/07/17 01:25:23;;;;;;;12.73;10.82;;;20.20;99.90;;;;;;5074909;28;20440;-91
2021/07/17 01:27:54;;;;;;;13.88;10.85;;;20.20;99.90;;;;;;5088617;28;20027;-89
2021/07/17 01:30:22;;;;;;;12.60;10.93;;;20.20;99.90;;;;;;5074482;28;20024;-91
2021/07/17 01:32:49;;;;;;;18.23;11.93;;;20.20;99.90;;;;;;5058779;28;20032;-91
2021/07/17 01:35:14;;;;;;;13.95;11.48;;;20.20;99.90;;;;;;5072299;28;20013;-89
2021/07/17 01:37:41;;;;;;;12.90;11.50;;;20.10;99.90;;;;;;5108452;28;20048;-90
2021/07/17 01:40:10;;;;;;;15.23;11.15;;;20.10;99.90;;;;;;5075528;28;20024;-90
2021/07/17 01:42:37;;;;;;;22.50;11.75;;;20.10;99.90;;;;;;5073592;28;20048;-90
2021/07/17 01:45:07;;;;;;;12.25;10.95;;;20.20;99.90;;;;;;5093252;28;20026;-91
2021/07/17 01:47:36;;;;;;;18.55;11.70;;;20.10;99.90;;;;;;5091366;28;20039;-89
2021/07/17 01:50:03;;;;;;;17.33;12.68;;;20.10;99.90;;;;;;5092272;28;20032;-91
2021/07/17 01:52:29;;;;;;;14.95;11.38;;;20.10;99.90;;;;;;5088372;28;20036;-91
2021/07/17 01:54:55;;;;;;;14.23;12.65;;;20.10;99.90;;;;;;5086039;28;20044;-90
2021/07/17 01:57:20;;;;;;;12.90;10.45;;;20.10;99.90;;;;;;5072682;28;20050;-91
2021/07/17 01:59:46;;;;;;;14.50;11.30;;;20.10;99.90;;;;;;5093270;28;20065;-90
2021/07/17 02:02:12;;;;;;;13.18;10.52;;;20.00;99.90;;;;;;5076294;28;20368;-89
2021/07/17 02:04:38;;;;;;;11.98;10.25;;;20.00;99.90;;;;;;5077632;28;20440;-90
2021/07/17 02:07:05;;;;;;;13.63;11.50;;;20.00;99.90;;;;;;5074495;28;20086;-90
2021/07/17 02:09:32;;;;;;;16.17;13.65;;;20.00;99.90;;;;;;5091762;28;20129;-89
2021/07/17 02:11:58;;;;;;;20.15;14.80;;;20.00;99.90;;;;;;5075622;28;20106;-90
2021/07/17 02:14:23;;;;;;;15.52;13.18;;;20.00;99.90;;;;;;5067458;28;20035;-90
2021/07/17 02:16:49;;;;;;;16.48;12.73;;;20.00;99.90;;;;;;5074177;28;20024;-89
2021/07/17 02:19:22;;;;;;;18.15;14.05;;;19.90;99.90;;;;;;5072102;28;20074;-91
2021/07/17 02:21:52;;;;;;;15.48;13.27;;;19.90;99.90;;;;;;5069982;28;20028;-89
2021/07/17 02:24:19;;;;;;;16.30;13.98;;;19.90;99.90;;;;;;5088120;28;20027;-91
2021/07/17 02:26:46;;;;;;;14.43;12.88;;;19.90;99.90;;;;;;5091755;28;20030;-90
2021/07/17 02:29:12;;;;;;;13.65;12.25;;;19.90;99.90;;;;;;5090152;28;20043;-89
2021/07/17 02:31:38;;;;;;;17.80;13.27;;;19.80;99.90;;;;;;5089101;28;20082;-91
2021/07/17 02:34:08;;;;;;;18.38;14.15;;;19.90;99.90;;;;;;5088731;28;20444;-91
2021/07/17 02:36:35;;;;;;;16.35;13.85;;;19.90;99.90;;;;;;5089490;28;20032;-91
2021/07/17 02:39:00;;;;;;;14.52;11.60;;;19.90;99.90;;;;;;5092529;28;20131;-92
2021/07/17 02:41:26;;;;;;;13.88;12.38;;;19.90;99.90;;;;;;5074129;28;20064;-91
2021/07/17 02:43:53;;;;;;;13.60;11.13;;;19.90;99.90;;;;;;5065112;28;20422;-91
2021/07/17 02:46:19;;;;;;;16.00;11.18;;;19.90;99.90;;;;;;5072526;28;20396;-91
2021/07/17 02:48:45;;;;;;;15.43;12.20;;;19.90;99.90;;;;;;5088818;28;20103;-89
2021/07/17 02:51:12;;;;;;;14.02;12.30;;;19.90;99.90;;;;;;5073066;28;20123;-91
2021/07/17 02:53:38;;;;;;;14.07;12.48;;;19.80;99.90;;;;;;5089180;28;20020;-92
2021/07/17 02:56:03;;;;;;;14.13;12.48;;;19.80;99.90;;;;;;5072637;28;20511;-92
2021/07/17 02:58:29;;;;;;;19.45;12.30;;;19.90;99.90;;;;;;5073570;28;20024;-91
2021/07/17 03:00:55;;;;;;;17.70;12.07;;;19.80;99.90;;;;;;5073639;28;20078;-90
2021/07/17 03:03:22;;;;;;;16.08;12.65;;;19.80;99.90;;;;;;5090701;28;20028;-89
2021/07/17 03:05:48;;;;;;;13.50;11.35;;;19.90;99.90;;;;;;5092056;28;20028;-91
2021/07/17 03:08:17;;;;;;;12.73;10.55;;;19.90;99.90;;;;;;5058233;28;20024;-91
2021/07/17 03:10:43;;;;;;;13.10;11.57;;;20.00;99.90;;;;;;5085312;28;20073;-92
2021/07/17 03:13:10;;;;;;;15.18;11.52;;;20.00;99.90;;;;;;5089665;28;20040;-88
2021/07/17 03:15:35;;;;;;;12.95;10.90;;;20.00;99.90;;;;;;5071492;28;20031;-91
2021/07/17 03:18:01;;;;;;;14.68;11.10;;;20.00;99.90;;;;;;5073890;28;20523;-90
2021/07/17 03:20:27;;;;;;;13.88;11.95;;;20.10;99.90;;;;;;5071302;28;20024;-91
2021/07/17 03:22:53;;;;;;;13.32;11.20;;;20.10;99.90;;;;;;5073725;28;20060;-91
2021/07/17 03:25:19;;;;;;;14.90;12.35;;;20.10;99.90;;;;;;5073014;28;20040;-90
2021/07/17 03:27:44;;;;;;;12.98;11.30;;;20.20;99.90;;;;;;5070781;28;20081;-90
2021/07/17 03:30:11;;;;;;;12.77;11.55;;;20.20;99.90;;;;;;5056480;28;20032;-92
2021/07/17 03:32:37;;;;;;;14.20;11.45;;;20.30;99.90;;;;;;5093555;28;20036;-91
2021/07/17 03:35:03;;;;;;;13.32;10.63;;;20.30;99.90;;;;;;5063612;28;20532;-91
2021/07/17 03:37:28;;;;;;;13.40;10.70;;;20.40;99.90;;;;;;5084019;28;20055;-90
2021/07/17 03:39:54;;;;;;;15.10;13.45;;;20.50;99.90;;;;;;5076737;28;20384;-91
2021/07/17 03:42:21;;;;;;;12.52;11.25;;;20.50;99.90;;;;;;5095202;28;20039;-89
2021/07/17 03:44:46;;;;;;;13.13;11.65;;;20.70;99.90;;;;;;5074857;28;20024;-91
2021/07/17 03:47:12;;;;;;;13.85;12.13;;;20.90;99.90;;;;;;5094796;28;20031;-89
2021/07/17 03:49:38;;;;;;;17.05;12.10;;;21.00;99.90;;;;;;5092924;28;20430;-91
2021/07/17 03:52:04;;;;;;;14.85;12.00;;;21.00;99.90;;;;;;5070885;28;20124;-91
2021/07/17 03:54:30;;;;;;;13.20;11.88;;;21.10;99.90;;;;;;5094189;28;20032;-89
2021/07/17 03:56:55;;;;;;;14.77;12.10;;;21.10;99.90;;;;;;5094450;28;20028;-92
2021/07/17 03:59:21;;;;;;;15.32;12.63;;;21.10;99.90;;;;;;5092878;28;20028;-90
2021/07/17 04:01:47;;;;;;;17.10;13.32;;;21.20;99.90;;;;;;5092478;28;20032;-90
2021/07/17 04:04:13;;;;;;;14.55;11.88;;;21.40;99.90;;;;;;5092215;28;20066;-88
2021/07/17 04:06:40;;;;;;;19.67;12.68;;;21.60;99.90;;;;;;5090685;28;20025;-91
2021/07/17 04:09:06;;;;;;;14.10;12.23;;;21.80;99.90;;;;;;5090272;28;20498;-89
2021/07/17 04:11:32;;;;;;;15.52;12.18;;;22.10;99.90;;;;;;5075655;28;20032;-90
2021/07/17 04:13:57;;;;;;;20.15;12.20;;;22.70;99.90;;;;;;5075887;28;20020;-90
2021/07/17 04:16:23;;;;;;;13.35;11.48;;;23.10;99.90;;;;;;5076561;28;20036;-93
2021/07/17 04:18:49;;;;;;;14.88;11.43;;;23.50;99.90;;;;;;5076412;28;20027;-91
2021/07/17 04:21:15;;;;;;;13.70;11.73;;;23.80;99.90;;;;;;5093536;28;20023;-91
2021/07/17 04:23:41;;;;;;;15.23;12.02;;;24.10;99.90;;;;;;5090239;28;20317;-91
2021/07/17 04:26:08;;;;;;;12.27;11.07;;;24.50;99.90;;;;;;5060835;28;20031;-90
2021/07/17 04:28:35;;;;;;;15.38;11.43;;;24.70;99.90;;;;;;5111331;27;20042;-90
2021/07/17 04:31:01;;;;;;;15.50;11.38;;;25.10;99.90;;;;;;5117016;28;20012;-91
2021/07/17 04:33:27;;;;;;;16.08;11.43;;;25.30;99.90;;;;;;5096282;28;20372;-90
2021/07/17 04:35:53;;;;;;;14.13;9.98;;;25.50;99.90;;;;;;5071373;28;20028;-90
2021/07/17 04:38:19;;;;;;;12.68;11.40;;;25.50;99.90;;;;;;5075734;28;20094;-91
2021/07/17 04:40:45;;;;;;;13.40;10.95;;;25.60;99.90;;;;;;5074409;28;20027;-90
2021/07/17 04:43:11;;;;;;;12.32;10.02;;;25.60;99.90;;;;;;5093173;28;20028;-92
2021/07/17 04:45:37;;;;;;;12.13;9.70;;;25.70;99.90;;;;;;5093348;28;20027;-91
2021/07/17 04:48:04;;;;;;;13.48;9.45;;;25.80;99.90;;;;;;5110483;28;20541;-90
2021/07/17 04:50:33;;;;;;;14.57;10.35;;;25.80;99.90;;;;;;5076858;28;20025;-90
2021/07/17 04:53:00;;;;;;;16.05;10.15;;;25.80;99.90;;;;;;5081380;28;20056;-91
2021/07/17 04:55:26;;;;;;;13.38;10.73;;;25.40;99.90;;;;;;5076107;28;20032;-91
2021/07/17 04:57:52;;;;;;;16.80;10.30;;;25.10;99.90;;;;;;5093204;28;20020;-90
2021/07/17 05:00:19;;;;;;;11.02;8.98;;;24.70;99.90;;;;;;5096266;28;20023;-91
2021/07/17 05:02:49;;;;;;;17.27;10.43;;;24.30;99.90;;;;;;5095464;28;20444;-91
2021/07/17 05:05:17;;;;;;;11.95;9.70;;;24.00;99.90;;;;;;5094277;28;20028;-92
2021/07/17 05:07:43;;;;;;;14.20;10.32;;;23.80;99.90;;;;;;5094880;28;20020;-92
2021/07/17 05:10:11;;;;;;;16.50;9.13;;;23.60;99.90;;;;;;5089523;28;20071;-92
2021/07/17 05:12:37;;;;;;;17.40;9.80;;;23.60;99.90;;;;;;5077978;28;20032;-92
2021/07/17 05:15:07;;;;;;;14.45;9.70;;;23.40;99.90;;;;;;5089645;28;20384;-92
2021/07/17 05:17:33;;;;;;;10.57;9.13;;;23.30;99.90;;;;;;5093860;28;20388;-93
2021/07/17 05:19:58;;;;;;;13.90;10.02;;;23.10;99.90;;;;;;5075442;28;20035;-92
2021/07/17 05:22:24;;;;;;;20.88;10.25;;;23.10;99.90;;;;;;5071912;28;20031;-91
2021/07/17 05:24:50;;;;;;;15.50;10.80;;;23.20;99.90;;;;;;5079249;28;20016;-92
2021/07/17 05:27:15;;;;;;;16.60;10.57;;;23.30;99.90;;;;;;5093660;28;20020;-94
2021/07/17 05:29:41;;;;;;;13.57;10.35;;;23.30;99.90;;;;;;5075535;28;20501;-92
2021/07/17 05:32:07;;;;;;;13.50;10.20;;;23.20;99.90;;;;;;5071190;28;20033;-93
2021/07/17 05:34:33;;;;;;;19.48;11.82;;;23.20;99.90;;;;;;5067490;28;20055;-92
2021/07/17 05:36:58;;;;;;;15.45;10.13;;;23.30;99.90;;;;;;5071810;28;20037;-91
2021/07/17 05:39:24;;;;;;;19.33;10.68;;;23.20;99.90;;;;;;5091592;28;20467;-93
2021/07/17 05:41:49;;;;;;;14.82;10.18;;;23.30;99.90;;;;;;5074998;28;20032;-89
2021/07/17 05:44:15;;;;;;;13.65;10.40;;;23.30;99.90;;;;;;5058024;28;20104;-90
2021/07/17 05:46:41;;;;;;;16.48;10.93;;;23.40;99.90;;;;;;5100571;28;20040;-90
2021/07/17 05:49:06;;;;;;;14.68;10.88;;;23.50;99.90;;;;;;5070047;28;20479;-91
2021/07/17 05:51:32;;;;;;;12.10;10.07;;;23.60;99.90;;;;;;5073748;28;20547;-92
2021/07/17 05:53:58;;;;;;;15.82;10.18;;;23.60;99.90;;;;;;5073803;28;20024;-90
2021/07/17 05:56:23;;;;;;;13.02;10.25;;;23.70;99.90;;;;;;5093602;28;20028;-91
2021/07/17 05:58:49;;;;;;;16.42;10.38;;;23.70;99.90;;;;;;5070827;28;20484;-92
2021/07/17 06:01:15;;;;;;;12.82;9.02;;;23.80;99.90;;;;;;5074712;28;20050;-91
2021/07/17 06:03:42;;;;;;;13.75;9.65;;;23.90;99.90;;;;;;5107930;28;20035;-91
2021/07/17 06:06:09;;;;;;;18.35;9.40;;;24.00;99.90;;;;;;5093334;28;20065;-92
2021/07/17 06:08:35;;;;;;;11.15;9.02;;;24.10;99.90;;;;;;5074563;28;20386;-91
2021/07/17 06:11:00;;;;;;;15.30;10.50;;;24.20;99.90;;;;;;5092971;28;20095;-90
2021/07/17 06:13:26;;;;;;;18.33;10.00;;;24.20;99.90;;;;;;5065691;28;20036;-91
2021/07/17 06:15:52;;;;;;;11.02;9.85;;;24.20;99.90;;;;;;5060669;28;20028;-91
2021/07/17 06:18:18;;;;;;;12.30;9.68;;;24.20;99.90;;;;;;5107351;28;20065;-91
2021/07/17 06:20:43;;;;;;;16.02;10.13;;;24.30;99.90;;;;;;5075160;28;20024;-92
2021/07/17 06:23:10;;;;;;;15.90;9.75;;;24.40;99.90;;;;;;5075185;28;20025;-93
2021/07/17 06:25:36;;;;;;;12.38;9.43;;;24.50;99.90;;;;;;5065402;28;20124;-92
2021/07/17 06:28:01;;;;;;;14.35;9.50;;;24.40;99.90;;;;;;5055803;28;20040;-91
2021/07/17 06:30:27;;;;;;;14.73;9.23;;;24.50;99.90;;;;;;5055259;28;20055;-92
2021/07/17 06:32:53;;;;;;;12.05;9.20;;;24.50;99.90;;;;;;5073037;28;20483;-90
2021/07/17 06:35:18;;;;;;;14.27;8.98;;;24.50;99.90;;;;;;5058979;28;20063;-93
2021/07/17 06:37:44;;;;;;;12.15;9.38;;;24.60;99.90;;;;;;5073403;28;20036;-93
2021/07/17 06:40:15;;;;;;;18.50;9.75;;;24.60;99.90;;;;;;5054946;28;20028;-92
2021/07/17 06:42:47;;;;;;;12.10;8.43;;;24.70;99.90;;;;;;5059202;28;20031;-92
2021/07/17 06:45:13;;;;;;;11.85;8.07;;;24.70;99.90;;;;;;5092507;28;20027;-93
2021/07/17 06:47:39;;;;;;;14.35;9.77;;;24.90;99.90;;;;;;5055460;28;20396;-91
2021/07/17 06:50:06;;;;;;;13.27;8.80;;;25.00;99.90;;;;;;5080253;28;20403;-91
2021/07/17 06:52:32;;;;;;;15.05;9.23;;;25.00;99.90;;;;;;5074757;28;20040;-91
2021/07/17 06:54:57;;;;;;;15.73;9.30;;;25.00;99.90;;;;;;5092626;28;20023;-93
2021/07/17 06:57:24;;;;;;;11.40;8.18;;;25.10;99.90;;;;;;5093300;28;20487;-91
2021/07/17 06:59:49;;;;;;;17.50;9.65;;;25.20;99.90;;;;;;5055649;28;20021;-92
2021/07/17 07:02:15;;;;;;;13.63;8.82;;;25.20;99.90;;;;;;5090790;28;20027;-93
2021/07/17 07:04:41;;;;;;;10.18;8.13;;;25.30;99.90;;;;;;5097817;28;20028;-90
2021/07/17 07:07:06;;;;;;;17.17;8.65;;;25.30;99.90;;;;;;5057828;28;20127;-91
2021/07/17 07:09:32;;;;;;;13.60;9.10;;;25.40;99.90;;;;;;5059019;28;20078;-92
2021/07/17 07:11:58;;;;;;;18.10;9.18;;;25.50;99.90;;;;;;5077268;28;20070;-90
2021/07/17 07:14:25;;;;;;;14.80;8.93;;;25.50;99.90;;;;;;5072219;28;20394;-90
2021/07/17 07:16:51;;;;;;;12.18;9.02;;;25.50;99.90;;;;;;5083596;28;20052;-91
2021/07/17 07:19:16;;;;;;;13.27;8.80;;;25.60;99.90;;;;;;5068708;28;20025;-94
2021/07/17 07:21:42;;;;;;;18.48;9.25;;;25.70;99.90;;;;;;5097168;28;20040;-93
2021/07/17 07:24:08;;;;;;;14.48;9.75;;;25.70;99.90;;;;;;5103227;28;20012;-92
2021/07/17 07:26:34;;;;;;;13.60;9.68;;;25.70;99.90;;;;;;5103628;28;20491;-93
2021/07/17 07:29:00;;;;;;;12.60;9.27;;;25.70;99.90;;;;;;5080100;28;20020;-91
2021/07/17 07:31:27;;;;;;;11.60;9.75;;;25.70;99.90;;;;;;5097578;28;20048;-94
2021/07/17 07:33:53;;;;;;;19.20;9.90;;;25.70;99.90;;;;;;5098420;28;20028;-93
2021/07/17 07:36:19;;;;;;;11.43;8.68;;;25.80;99.90;;;;;;5111790;28;20039;-92
2021/07/17 07:38:45;;;;;;;13.95;9.02;;;25.90;99.90;;;;;;5057491;28;20049;-91
2021/07/17 07:41:11;;;;;;;13.23;8.98;;;25.90;99.90;;;;;;5055111;28;20025;-92
2021/07/17 07:43:37;;;;;;;16.85;9.93;;;26.10;99.90;;;;;;5058059;28;20017;-93
2021/07/17 07:46:03;;;;;;;15.35;9.35;;;26.20;99.90;;;;;;5056005;28;20097;-93
2021/07/17 07:48:29;;;;;;;13.65;9.38;;;26.20;99.90;;;;;;5057832;28;20013;-89
2021/07/17 07:50:55;;;;;;;12.95;9.07;;;26.20;99.90;;;;;;5062405;28;20029;-91
2021/07/17 07:53:21;;;;;;;16.98;9.02;;;26.30;99.90;;;;;;5058657;28;20079;-93
2021/07/17 07:55:47;;;;;;;11.63;8.10;;;26.30;99.90;;;;;;5058114;28;20025;-95
2021/07/17 07:58:12;;;;;;;14.75;8.55;;;26.30;99.90;;;;;;5057193;28;20424;-93
2021/07/17 08:00:39;;;;;;;14.57;9.57;;;26.30;99.90;;;;;;5051744;28;20540;-90
2021/07/17 08:03:05;;;;;;;13.13;10.07;;;26.40;99.90;;;;;;5035256;28;20029;-94
2021/07/17 08:05:30;;;;;;;15.27;9.15;;;26.40;99.90;;;;;;5035853;28;20037;-93
2021/07/17 08:07:56;;;;;;;15.80;9.30;;;26.50;99.90;;;;;;5036716;28;20021;-93
2021/07/17 08:10:23;;;;;;;12.05;8.90;;;26.50;99.90;;;;;;5035186;28;20025;-93
2021/07/17 08:12:50;;;;;;;12.25;9.00;;;26.50;99.90;;;;;;5052061;28;20135;-93
2021/07/17 08:15:16;;;;;;;20.42;9.82;;;26.60;99.90;;;;;;5036392;28;20023;-93
2021/07/17 08:17:42;;;;;;;11.48;9.02;;;26.70;99.90;;;;;;5054311;28;20059;-92
2021/07/17 08:20:09;;;;;;;14.90;9.10;;;26.60;99.90;;;;;;5038903;28;20034;-94
2021/07/17 08:22:40;;;;;;;14.20;8.93;;;26.80;99.90;;;;;;5036058;28;20017;-92
2021/07/17 08:25:07;;;;;;;19.35;9.73;;;26.70;99.90;;;;;;5038493;28;20013;-93
2021/07/17 08:27:32;;;;;;;15.95;9.77;;;26.90;99.90;;;;;;5052768;28;20100;-94
2021/07/17 08:29:58;;;;;;;17.35;9.75;;;26.90;99.90;;;;;;5053731;28;20024;-93
2021/07/17 08:32:24;;;;;;;12.07;8.25;;;27.10;99.90;;;;;;5052192;28;20033;-94
2021/07/17 08:34:52;;;;;;;17.58;9.57;;;27.00;99.90;;;;;;5049399;28;20432;-92
2021/07/17 08:37:18;;;;;;;15.23;8.63;;;27.10;99.90;;;;;;5047825;28;20049;-93
2021/07/17 08:39:44;;;;;;;13.70;8.93;;;27.00;99.90;;;;;;5037129;28;23195;-93
2021/07/17 08:42:10;;;;;;;15.30;9.13;;;27.10;99.90;;;;;;5050573;28;20110;-93
2021/07/17 08:44:40;;;;;;;14.82;8.80;;;27.10;99.90;;;;;;5056052;28;20388;-92
2021/07/17 08:47:07;;;;;;;16.13;8.18;;;27.00;99.90;;;;;;5053591;28;20162;-94
2021/07/17 08:49:33;;;;;;;14.10;8.68;;;27.00;99.90;;;;;;5054024;28;20028;-90
2021/07/17 08:52:02;;;;;;;14.35;9.70;;;27.10;99.90;;;;;;5054058;28;20033;-93
2021/07/17 08:54:29;;;;;;;14.82;9.60;;;27.10;99.90;;;;;;5055548;28;20045;-93
2021/07/17 08:56:55;;;;;;;17.40;9.52;;;27.30;99.90;;;;;;5055359;28;20040;-91
2021/07/17 08:59:22;;;;;;;16.85;9.32;;;27.30;99.90;;;;;;5055147;28;20021;-93
2021/07/17 09:01:51;;;;;;;17.67;9.15;;;27.30;99.90;;;;;;5054155;28;20111;-94
2021/07/17 09:04:25;;;;;;;14.05;9.55;;;27.30;99.90;;;;;;5053837;28;20063;-92
2021/07/17 09:06:51;;;;;;;15.63;9.25;;;27.40;99.90;;;;;;5048177;28;20079;-93
2021/07/17 09:09:30;;;;;;;18.45;9.27;;;27.40;99.90;;;;;;5036221;28;20022;-92
2021/07/17 09:11:56;;;;;;;16.40;9.07;;;27.40;99.90;;;;;;5034884;28;20116;-94
2021/07/17 09:14:36;;;;;;;16.60;8.77;;;27.60;99.90;;;;;;5055433;28;20033;-90
2021/07/17 09:17:02;;;;;;;;;;;27.60;99.90;;;;;;5040217;28;20025;-94
2021/07/17 09:19:28;;;;;;;17.17;8.98;;;27.70;99.90;;;;;;5033679;28;19913;-92
2021/07/17 09:21:55;;;;;;;13.20;9.00;;;27.70;99.90;;;;;;5037794;28;20028;-92
2021/07/17 09:24:21;;;;;;;13.65;8.75;;;27.80;99.90;;;;;;5054423;28;20052;-93
2021/07/17 09:26:52;;;;;;;15.00;8.55;;;27.70;99.90;;;;;;5054174;28;20021;-93
2021/07/17 09:29:18;;;;;;;15.73;9.20;;;27.80;99.90;;;;;;5054216;28;20032;-94
2021/07/17 09:31:50;;;;;;;18.48;9.43;;;27.90;99.90;;;;;;5053284;28;20041;-92
2021/07/17 09:34:17;;;;;;;16.00;8.20;;;27.90;99.90;;;;;;5054059;28;20025;-93
2021/07/17 09:37:05;;;;;;;11.05;8.77;;;28.00;99.90;;;;;;5054154;28;20047;-94
2021/07/17 09:39:35;;;;;;;14.02;8.93;;;28.10;99.90;;;;;;5091095;28;20129;-93
2021/07/17 09:42:03;;;;;;;14.70;9.00;;;28.10;99.90;;;;;;5074236;28;20020;-93
2021/07/17 09:44:30;;;;;;;17.08;9.43;;;28.10;99.90;;;;;;5075357;28;20039;-94
2021/07/17 09:46:57;;;;;;;14.23;9.02;;;28.00;99.90;;;;;;5089755;28;20115;-91
2021/07/17 09:49:24;;;;;;;14.75;8.73;;;28.10;99.90;;;;;;5066677;28;20056;-94
2021/07/17 09:52:11;;;;;;;11.75;8.43;;;28.00;99.90;;;;;;5073761;28;20480;-91
2021/07/17 09:55:00;;;;;;;13.05;8.95;;;28.10;99.90;;;;;;5055830;28;20472;-92
2021/07/17 09:57:33;;;;;;;11.43;8.55;;;28.10;99.90;;;;;;5056920;28;20013;-93
2021/07/17 10:00:11;;;;;;;14.20;9.00;;;28.30;99.90;;;;;;5073475;28;20024;-93
2021/07/17 10:02:39;;;;;;;12.07;8.15;;;28.20;99.90;;;;;;5088800;28;20549;-92
2021/07/17 10:05:09;;;;;;;12.60;8.77;;;28.30;99.90;;;;;;5080590;28;20032;-94
2021/07/17 10:07:36;;;;;;;11.25;8.07;;;28.40;99.90;;;;;;5093946;28;20016;-92
2021/07/17 10:10:05;;;;;;;14.40;9.30;;;28.60;99.90;;;;;;5076766;28;20036;-91
2021/07/17 10:12:38;;;;;;;12.70;7.65;;;28.60;99.90;;;;;;5097874;28;20092;-92
2021/07/17 10:15:07;;;;;;;10.32;7.95;;;28.60;99.90;;;;;;5092977;28;20008;-91
2021/07/17 10:17:41;;;;;;;12.45;7.15;;;28.70;99.90;;;;;;5098682;28;20024;-93
2021/07/17 10:20:15;;;;;;;16.30;8.00;;;28.70;99.90;;;;;;5077751;28;20021;-94
2021/07/17 10:22:42;;;;;;;12.90;8.55;;;28.80;99.90;;;;;;5077734;28;20040;-94
2021/07/17 10:25:10;;;;;;;10.38;7.50;;;28.90;99.90;;;;;;5073897;28;20023;-94
2021/07/17 10:27:36;;;;;;;14.02;9.00;;;28.90;99.90;;;;;;5094377;28;20043;-93
2021/07/17 10:30:07;;;;;;;11.65;7.72;;;29.10;99.90;;;;;;5096186;28;20463;-92
2021/07/17 10:32:33;;;;;;;14.10;8.68;;;29.10;99.90;;;;;;5079032;28;20032;-92
2021/07/17 10:34:59;;;;;;;11.88;8.38;;;29.10;99.90;;;;;;5096058;28;20084;-91
2021/07/17 10:37:30;;;;;;;12.23;7.80;;;29.00;99.90;;;;;;5076293;28;20043;-92
2021/07/17 10:40:09;;;;;;;11.25;7.28;;;29.10;99.90;;;;;;5097906;28;20030;-92
2021/07/17 10:42:38;;;;;;;10.05;7.65;;;29.20;99.90;;;;;;5100134;28;20032;-94
2021/07/17 10:45:05;;;;;;;14.48;8.45;;;29.30;99.90;;;;;;5082084;28;20393;-93
2021/07/17 10:47:41;;;;;;;11.32;7.97;;;29.20;99.90;;;;;;5081973;28;20028;-93
2021/07/17 10:50:12;;;;;;;8.77;7.65;;;29.00;99.90;;;;;;5092498;28;20016;-93
2021/07/17 10:52:43;;;;;;;11.02;7.75;;;29.00;99.90;;;;;;5081848;28;20494;-93
2021/07/17 10:55:33;;;;;;;10.45;7.45;;;28.80;99.90;;;;;;5100296;28;20107;-92
2021/07/17 10:58:24;;;;;;;11.20;7.60;;;28.70;99.90;;;;;;5066181;28;20044;-93
2021/07/17 11:00:55;;;;;;;10.68;7.72;;;28.60;99.90;;;;;;5065042;28;20020;-92
2021/07/17 11:03:32;;;;;;;12.07;7.90;;;28.60;99.90;;;;;;5098620;28;20024;-92
2021/07/17 11:06:31;;;;;;;13.23;7.72;;;28.50;99.90;;;;;;5075066;28;20613;-92
2021/07/17 11:09:30;;;;;;;9.07;7.47;;;28.60;99.90;;;;;;5077263;28;20044;-93
2021/07/17 11:12:20;;;;;;;15.77;8.25;;;28.70;99.90;;;;;;5091267;28;20032;-93
2021/07/17 11:14:46;;;;;;;12.57;8.30;;;28.80;99.90;;;;;;5075606;28;20480;-92
2021/07/17 11:17:12;;;;;;;11.07;8.27;;;28.80;99.90;;;;;;5077530;28;20043;-92
2021/07/17 11:19:38;;;;;;;9.80;8.38;;;28.90;99.90;;;;;;5095883;28;20024;-93
2021/07/17 11:22:14;;;;;;;10.38;7.70;;;29.10;99.90;;;;;;5071139;28;20025;-91
2021/07/17 11:24:40;;;;;;;12.48;7.82;;;29.10;99.90;;;;;;5061360;28;20032;-93
2021/07/17 11:27:12;;;;;;;14.80;7.95;;;29.20;99.90;;;;;;5097751;28;20043;-92
2021/07/17 11:29:46;;;;;;;13.77;8.70;;;29.30;99.90;;;;;;5081033;28;20034;-92
2021/07/17 11:32:13;;;;;;;15.13;8.15;;;29.40;99.90;;;;;;5077526;28;20437;-93
2021/07/17 11:34:51;;;;;;;15.60;8.75;;;29.40;99.90;;;;;;5072169;28;20069;-92
2021/07/17 11:37:21;;;;;;;13.13;8.68;;;29.40;99.90;;;;;;5072637;28;20048;-91
2021/07/17 11:39:50;;;;;;;12.98;9.02;;;29.40;99.90;;;;;;5063390;28;20012;-92
2021/07/17 11:42:19;;;;;;;;;;;29.50;99.90;;;;;;5061309;28;20013;-94
2021/07/17 11:44:47;;;;;;;15.18;8.45;;;29.50;99.90;;;;;;5073243;28;19904;-92
2021/07/17 11:47:28;;;;;;;15.07;8.02;;;29.50;99.90;;;;;;5079042;28;20058;-92
2021/07/17 11:49:54;;;;;;;11.60;8.95;;;29.40;99.90;;;;;;5080522;28;20032;-92
2021/07/17 11:52:29;;;;;;;11.35;8.43;;;29.40;99.90;;;;;;5069407;28;20044;-93
2021/07/17 11:55:00;;;;;;;14.35;9.63;;;29.40;99.90;;;;;;5063780;28;20065;-92
2021/07/17 11:57:31;;;;;;;12.02;8.93;;;29.30;99.90;;;;;;5076269;28;20047;-93
2021/07/17 11:59:59;;;;;;;10.63;8.80;;;29.20;99.90;;;;;;5078563;28;20012;-92
2021/07/17 12:02:30;;;;;;;11.95;8.98;;;29.20;99.90;;;;;;5096585;28;20083;-92
2021/07/17 12:04:58;;;;;;;15.73;8.73;;;29.30;99.90;;;;;;5095954;28;20033;-91
2021/07/17 12:07:29;;;;;;;11.98;9.32;;;29.40;99.90;;;;;;5068333;28;20025;-92
2021/07/17 12:10:05;;;;;;;16.67;9.60;;;29.40;99.90;;;;;;5076467;28;20017;-91
2021/07/17 12:12:33;;;;;;;11.75;8.75;;;29.60;99.90;;;;;;5076977;28;20048;-91
2021/07/17 12:15:22;;;;;;;15.82;8.68;;;29.80;99.90;;;;;;5098959;28;20467;-92
2021/07/17 12:17:47;;;;;;;10.70;8.20;;;29.90;99.90;;;;;;5097864;28;20454;-92
2021/07/17 12:20:20;;;;;;;16.55;8.20;;;30.20;99.90;;;;;;5079445;28;20059;-93
2021/07/17 12:23:02;;;;;;;14.48;8.48;;;30.10;99.90;;;;;;5083868;28;20020;-92
2021/07/17 12:25:37;;;;;;;17.08;8.90;;;30.10;99.90;;;;;;5094683;28;20029;-93
2021/07/17 12:28:02;;;;;;;12.00;8.27;;;30.10;99.90;;;;;;5062520;28;20024;-91
2021/07/17 12:30:36;;;;;;;14.60;8.85;;;30.00;99.90;;;;;;5095256;28;20080;-94
2021/07/17 12:33:23;;;;;;;13.40;8.43;;;30.00;99.90;;;;;;5060594;28;20032;-92
2021/07/17 12:36:00;;;;;;;10.30;8.43;;;29.80;99.90;;;;;;5078279;28;20021;-93